sensor_id;sensor_type;location;lat;lon;timestamp;pressure;altitude;pressure_sealevel;temperature;humidity
22025;BME280;11176;51.448;6.650;2023-01-29T00:01:28;45865.88;;;-141.29;99.09
22025;BME280;11176;51.448;6.650;2023-01-29T00:03:56;45853.91;;;-141.29;99.21
22025;BME280;11176;51.448;6.650;2023-01-29T00:06:22;45849.91;;;-141.29;99.13
22025;BME280;11176;51.448;6.650;2023-01-29T00:08:49;45865.88;;;-141.29;99.13
22025;BME280;11176;51.448;6.650;2023-01-29T00:11:16;45845.91;;;-141.29;99.17
22025;BME280;11176;51.448;6.650;2023-01-29T00:13:42;45853.91;;;-141.29;99.14
22025;BME280;11176;51.448;6.650;2023-01-29T00:16:09;45861.91;;;-141.29;99.24
22025;BME280;11176;51.448;6.650;2023-01-29T00:18:39;45861.91;;;-141.29;99.26
22025;BME280;11176;51.448;6.650;2023-01-29T00:21:15;45869.88;;;-141.29;99.60
22025;BME280;11176;51.448;6.650;2023-01-29T00:23:42;45857.91;;;-141.29;100.00
22025;BME280;11176;51.448;6.650;2023-01-29T00:26:09;45869.88;;;-141.29;99.77
22025;BME280;11176;51.448;6.650;2023-01-29T00:28:39;45865.88;;;-141.29;99.58
22025;BME280;11176;51.448;6.650;2023-01-29T00:31:11;45857.91;;;-141.29;99.13
22025;BME280;11176;51.448;6.650;2023-01-29T00:33:38;45877.88;;;-141.29;99.51
22025;BME280;11176;51.448;6.650;2023-01-29T00:36:09;45859.91;;;-141.29;99.00
22025;BME280;11176;51.448;6.650;2023-01-29T00:38:36;45861.91;;;-141.29;99.49
22025;BME280;11176;51.448;6.650;2023-01-29T00:41:12;45845.91;;;-141.29;99.05
22025;BME280;11176;51.448;6.650;2023-01-29T00:43:57;45851.91;;;-141.29;99.51
22025;BME280;11176;51.448;6.650;2023-01-29T00:46:42;45845.91;;;-141.29;99.51
22025;BME280;11176;51.448;6.650;2023-01-29T00:49:09;45861.91;;;-141.29;99.84
22025;BME280;11176;51.448;6.650;2023-01-29T00:51:37;45843.91;;;-141.29;100.00
22025;BME280;11176;51.448;6.650;2023-01-29T00:54:04;45865.88;;;-141.29;100.00
22025;BME280;11176;51.448;6.650;2023-01-29T00:56:34;45873.88;;;-141.29;100.00
22025;BME280;11176;51.448;6.650;2023-01-29T00:59:03;45881.88;;;-141.29;100.00
22025;BME280;11176;51.448;6.650;2023-01-29T01:01:30;45863.91;;;-141.29;99.90
22025;BME280;11176;51.448;6.650;2023-01-29T01:04:15;45873.88;;;-141.29;99.81
22025;BME280;11176;51.448;6.650;2023-01-29T01:06:42;45857.91;;;-141.29;99.88
22025;BME280;11176;51.448;6.650;2023-01-29T01:09:09;45845.91;;;-141.29;99.72
22025;BME280;11176;51.448;6.650;2023-01-29T01:11:55;45853.91;;;-141.29;100.00
22025;BME280;11176;51.448;6.650;2023-01-29T01:14:21;45881.88;;;-141.29;99.71
22025;BME280;11176;51.448;6.650;2023-01-29T01:16:48;45865.88;;;-141.29;99.93
22025;BME280;11176;51.448;6.650;2023-01-29T01:19:15;45839.91;;;-141.29;99.87
22025;BME280;11176;51.448;6.650;2023-01-29T01:21:41;45857.91;;;-141.29;99.91
22025;BME280;11176;51.448;6.650;2023-01-29T01:24:13;45863.91;;;-141.29;100.00
22025;BME280;11176;51.448;6.650;2023-01-29T01:26:40;45867.88;;;-141.29;100.00
22025;BME280;11176;51.448;6.650;2023-01-29T01:29:06;45853.91;;;-141.29;100.00
22025;BME280;11176;51.448;6.650;2023-01-29T01:31:33;45869.88;;;-141.29;100.00
22025;BME280;11176;51.448;6.650;2023-01-29T01:34:00;45865.88;;;-141.29;100.00
22025;BME280;11176;51.448;6.650;2023-01-29T01:36:27;45855.91;;;-141.29;99.80
22025;BME280;11176;51.448;6.650;2023-01-29T01:38:53;45873.88;;;-141.29;99.73
22025;BME280;11176;51.448;6.650;2023-01-29T01:41:21;45857.91;;;-141.29;98.99
22025;BME280;11176;51.448;6.650;2023-01-29T01:44:03;45861.91;;;-141.29;99.33
22025;BME280;11176;51.448;6.650;2023-01-29T01:46:31;45863.91;;;-141.29;99.48
22025;BME280;11176;51.448;6.650;2023-01-29T01:49:11;45841.91;;;-141.29;99.74
22025;BME280;11176;51.448;6.650;2023-01-29T01:51:44;45849.91;;;-141.29;99.30
22025;BME280;11176;51.448;6.650;2023-01-29T01:54:17;45849.91;;;-141.29;99.40
22025;BME280;11176;51.448;6.650;2023-01-29T01:56:50;45867.88;;;-141.29;98.79
22025;BME280;11176;51.448;6.650;2023-01-29T01:59:22;45873.88;;;-141.29;99.55
22025;BME280;11176;51.448;6.650;2023-01-29T02:01:52;45855.91;;;-141.29;99.39
22025;BME280;11176;51.448;6.650;2023-01-29T02:04:22;45851.91;;;-141.29;99.47
22025;BME280;11176;51.448;6.650;2023-01-29T02:07:10;45865.88;;;-141.29;99.74
22025;BME280;11176;51.448;6.650;2023-01-29T02:10:06;45843.91;;;-141.29;100.00
22025;BME280;11176;51.448;6.650;2023-01-29T02:12:35;45861.91;;;-141.29;100.00
22025;BME280;11176;51.448;6.650;2023-01-29T02:15:02;45865.88;;;-141.29;100.00
22025;BME280;11176;51.448;6.650;2023-01-29T02:17:30;45857.91;;;-141.29;100.00
22025;BME280;11176;51.448;6.650;2023-01-29T02:20:08;45865.88;;;-141.29;100.00
22025;BME280;11176;51.448;6.650;2023-01-29T02:25:32;45873.88;;;-141.29;100.00
22025;BME280;11176;51.448;6.650;2023-01-29T02:31:09;45829.91;;;-141.29;100.00
22025;BME280;11176;51.448;6.650;2023-01-29T02:34:00;45849.91;;;-141.29;100.00
22025;BME280;11176;51.448;6.650;2023-01-29T02:39:16;45843.91;;;-141.29;99.93
22025;BME280;11176;51.448;6.650;2023-01-29T02:44:44;45833.91;;;-141.29;98.91
22025;BME280;11176;51.448;6.650;2023-01-29T02:47:31;45845.91;;;-141.29;99.00
22025;BME280;11176;51.448;6.650;2023-01-29T02:50:14;45829.91;;;-141.29;99.03
22025;BME280;11176;51.448;6.650;2023-01-29T02:52:56;45853.91;;;-141.29;99.14
22025;BME280;11176;51.448;6.650;2023-01-29T03:01:06;45857.91;;;-141.29;97.97
22025;BME280;11176;51.448;6.650;2023-01-29T03:03:41;45847.91;;;-141.29;97.83
22025;BME280;11176;51.448;6.650;2023-01-29T03:06:26;45833.91;;;-141.29;97.60
22025;BME280;11176;51.448;6.650;2023-01-29T03:08:59;45825.91;;;-141.29;97.57
22025;BME280;11176;51.448;6.650;2023-01-29T03:11:33;45853.91;;;-141.29;97.70
22025;BME280;11176;51.448;6.650;2023-01-29T03:14:05;45849.91;;;-141.29;97.56
22025;BME280;11176;51.448;6.650;2023-01-29T03:16:49;45849.91;;;-141.29;98.28
22025;BME280;11176;51.448;6.650;2023-01-29T03:19:33;45865.88;;;-141.29;98.43
22025;BME280;11176;51.448;6.650;2023-01-29T03:22:10;45847.91;;;-141.29;98.10
22025;BME280;11176;51.448;6.650;2023-01-29T03:24:44;45867.88;;;-141.29;97.80
22025;BME280;11176;51.448;6.650;2023-01-29T03:27:36;45865.88;;;-141.29;98.19
22025;BME280;11176;51.448;6.650;2023-01-29T03:30:27;45849.91;;;-141.29;98.35
22025;BME280;11176;51.448;6.650;2023-01-29T03:33:45;45869.88;;;-141.29;98.46
22025;BME280;11176;51.448;6.650;2023-01-29T03:36:50;45855.91;;;-141.29;98.81
22025;BME280;11176;51.448;6.650;2023-01-29T03:39:24;45857.91;;;-141.29;98.95
22025;BME280;11176;51.448;6.650;2023-01-29T03:41:58;45875.88;;;-141.29;98.84
22025;BME280;11176;51.448;6.650;2023-01-29T03:44:50;45855.91;;;-141.29;99.57
22025;BME280;11176;51.448;6.650;2023-01-29T03:47:35;45855.91;;;-141.29;99.28
22025;BME280;11176;51.448;6.650;2023-01-29T03:50:29;45855.91;;;-141.29;99.54
22025;BME280;11176;51.448;6.650;2023-01-29T03:55:39;45865.88;;;-141.29;100.00
22025;BME280;11176;51.448;6.650;2023-01-29T03:58:18;45857.91;;;-141.29;100.00
22025;BME280;11176;51.448;6.650;2023-01-29T04:06:26;45849.91;;;-141.29;100.00
22025;BME280;11176;51.448;6.650;2023-01-29T04:09:13;45853.91;;;-141.29;100.00
22025;BME280;11176;51.448;6.650;2023-01-29T04:11:48;45857.91;;;-141.29;100.00
22025;BME280;11176;51.448;6.650;2023-01-29T04:14:17;45849.91;;;-141.29;100.00
22025;BME280;11176;51.448;6.650;2023-01-29T04:16:52;45843.91;;;-141.29;100.00
22025;BME280;11176;51.448;6.650;2023-01-29T04:19:29;45833.91;;;-141.29;100.00
22025;BME280;11176;51.448;6.650;2023-01-29T04:22:24;45843.91;;;-141.29;100.00
22025;BME280;11176;51.448;6.650;2023-01-29T04:24:51;45821.91;;;-141.29;100.00
22025;BME280;11176;51.448;6.650;2023-01-29T04:27:25;45847.91;;;-141.29;100.00
22025;BME280;11176;51.448;6.650;2023-01-29T04:30:09;45841.91;;;-141.29;100.00
22025;BME280;11176;51.448;6.650;2023-01-29T04:32:47;45865.88;;;-141.29;100.00
22025;BME280;11176;51.448;6.650;2023-01-29T04:38:19;45845.91;;;-141.29;100.00
22025;BME280;11176;51.448;6.650;2023-01-29T04:43:50;45857.91;;;-141.29;100.00
22025;BME280;11176;51.448;6.650;2023-01-29T04:48:59;45833.91;;;-141.29;99.83
22025;BME280;11176;51.448;6.650;2023-01-29T04:51:35;45853.91;;;-141.29;99.88
22025;BME280;11176;51.448;6.650;2023-01-29T04:54:20;45829.91;;;-141.29;99.74
22025;BME280;11176;51.448;6.650;2023-01-29T04:56:56;45845.91;;;-141.29;99.38
22025;BME280;11176;51.448;6.650;2023-01-29T04:59:32;45819.91;;;-141.29;99.48
22025;BME280;11176;51.448;6.650;2023-01-29T05:02:02;45829.91;;;-141.29;99.15
22025;BME280;11176;51.448;6.650;2023-01-29T05:04:31;45853.91;;;-141.29;99.52
22025;BME280;11176;51.448;6.650;2023-01-29T05:07:05;45849.91;;;-141.29;100.00
22025;BME280;11176;51.448;6.650;2023-01-29T05:09:35;45835.91;;;-141.29;99.89
22025;BME280;11176;51.448;6.650;2023-01-29T05:12:06;45829.91;;;-141.29;99.46
22025;BME280;11176;51.448;6.650;2023-01-29T05:14:34;45809.94;;;-141.29;99.63
22025;BME280;11176;51.448;6.650;2023-01-29T05:17:06;45821.91;;;-141.29;98.93
22025;BME280;11176;51.448;6.650;2023-01-29T05:19:34;45839.91;;;-141.29;99.02
22025;BME280;11176;51.448;6.650;2023-01-29T05:22:03;45841.91;;;-141.29;98.79
22025;BME280;11176;51.448;6.650;2023-01-29T05:24:30;45847.91;;;-141.29;98.90
22025;BME280;11176;51.448;6.650;2023-01-29T05:26:57;45829.91;;;-141.29;98.72
22025;BME280;11176;51.448;6.650;2023-01-29T05:29:45;45829.91;;;-141.29;98.77
22025;BME280;11176;51.448;6.650;2023-01-29T05:32:12;45853.91;;;-141.29;98.03
22025;BME280;11176;51.448;6.650;2023-01-29T05:34:38;45813.94;;;-141.29;97.88
22025;BME280;11176;51.448;6.650;2023-01-29T05:37:05;45831.91;;;-141.29;97.95
22025;BME280;11176;51.448;6.650;2023-01-29T05:39:31;45833.91;;;-141.29;98.43
22025;BME280;11176;51.448;6.650;2023-01-29T05:41:58;45821.91;;;-141.29;98.09
22025;BME280;11176;51.448;6.650;2023-01-29T05:44:24;45825.91;;;-141.29;98.33
22025;BME280;11176;51.448;6.650;2023-01-29T05:46:51;45809.94;;;-141.29;98.19
22025;BME280;11176;51.448;6.650;2023-01-29T05:49:17;45809.94;;;-141.29;98.00
22025;BME280;11176;51.448;6.650;2023-01-29T05:51:45;45825.91;;;-141.29;98.52
22025;BME280;11176;51.448;6.650;2023-01-29T05:54:12;45835.91;;;-141.29;97.87
22025;BME280;11176;51.448;6.650;2023-01-29T05:56:39;45825.91;;;-141.29;98.68
22025;BME280;11176;51.448;6.650;2023-01-29T05:59:05;45849.91;;;-141.29;98.65
22025;BME280;11176;51.448;6.650;2023-01-29T06:01:32;45833.91;;;-141.29;98.80
22025;BME280;11176;51.448;6.650;2023-01-29T06:03:59;45847.91;;;-141.29;98.75
22025;BME280;11176;51.448;6.650;2023-01-29T06:06:25;45817.91;;;-141.29;98.94
22025;BME280;11176;51.448;6.650;2023-01-29T06:08:51;45831.91;;;-141.29;99.21
22025;BME280;11176;51.448;6.650;2023-01-29T06:11:18;45817.91;;;-141.29;98.72
22025;BME280;11176;51.448;6.650;2023-01-29T06:13:46;45817.91;;;-141.29;98.26
22025;BME280;11176;51.448;6.650;2023-01-29T06:16:13;45831.91;;;-141.29;98.91
22025;BME280;11176;51.448;6.650;2023-01-29T06:18:40;45841.91;;;-141.29;98.86
22025;BME280;11176;51.448;6.650;2023-01-29T06:21:11;45833.91;;;-141.29;98.50
22025;BME280;11176;51.448;6.650;2023-01-29T06:23:38;45821.91;;;-141.29;98.96
22025;BME280;11176;51.448;6.650;2023-01-29T06:26:07;45829.91;;;-141.29;98.85
22025;BME280;11176;51.448;6.650;2023-01-29T06:28:33;45833.91;;;-141.29;98.90
22025;BME280;11176;51.448;6.650;2023-01-29T06:31:01;45829.91;;;-141.29;98.46
22025;BME280;11176;51.448;6.650;2023-01-29T06:33:49;45805.94;;;-141.29;98.44
22025;BME280;11176;51.448;6.650;2023-01-29T06:36:15;45835.91;;;-141.29;98.33
22025;BME280;11176;51.448;6.650;2023-01-29T06:38:42;45813.94;;;-141.29;98.29
22025;BME280;11176;51.448;6.650;2023-01-29T06:41:10;45825.91;;;-141.29;98.15
22025;BME280;11176;51.448;6.650;2023-01-29T06:43:38;45831.91;;;-141.29;97.94
22025;BME280;11176;51.448;6.650;2023-01-29T06:46:06;45833.91;;;-141.29;97.74
22025;BME280;11176;51.448;6.650;2023-01-29T06:48:33;45807.94;;;-141.29;97.55
22025;BME280;11176;51.448;6.650;2023-01-29T06:51:01;45825.91;;;-141.29;98.24
22025;BME280;11176;51.448;6.650;2023-01-29T06:53:28;45831.91;;;-141.29;98.07
22025;BME280;11176;51.448;6.650;2023-01-29T06:55:54;45815.94;;;-141.29;97.99
22025;BME280;11176;51.448;6.650;2023-01-29T06:58:21;45829.91;;;-141.29;97.90
22025;BME280;11176;51.448;6.650;2023-01-29T07:00:48;45819.91;;;-141.29;98.54
22025;BME280;11176;51.448;6.650;2023-01-29T07:03:14;45833.91;;;-141.29;98.40
22025;BME280;11176;51.448;6.650;2023-01-29T07:05:41;45821.91;;;-141.29;97.71
22025;BME280;11176;51.448;6.650;2023-01-29T07:08:07;45809.94;;;-141.29;97.61
22025;BME280;11176;51.448;6.650;2023-01-29T07:10:35;45813.94;;;-141.29;97.51
22025;BME280;11176;51.448;6.650;2023-01-29T07:13:01;45821.91;;;-141.29;97.64
22025;BME280;11176;51.448;6.650;2023-01-29T07:15:28;45831.91;;;-141.29;97.73
22025;BME280;11176;51.448;6.650;2023-01-29T07:18:02;45829.91;;;-141.29;96.96
22025;BME280;11176;51.448;6.650;2023-01-29T07:20:30;45821.91;;;-141.29;96.58
22025;BME280;11176;51.448;6.650;2023-01-29T07:22:57;45831.91;;;-141.29;97.51
22025;BME280;11176;51.448;6.650;2023-01-29T07:25:24;45825.91;;;-141.29;97.61
22025;BME280;11176;51.448;6.650;2023-01-29T07:27:51;45837.91;;;-141.29;98.14
22025;BME280;11176;51.448;6.650;2023-01-29T07:30:17;45831.91;;;-141.29;97.88
22025;BME280;11176;51.448;6.650;2023-01-29T07:32:44;45805.94;;;-141.29;97.89
22025;BME280;11176;51.448;6.650;2023-01-29T07:35:11;45833.91;;;-141.29;97.61
22025;BME280;11176;51.448;6.650;2023-01-29T07:37:37;45847.91;;;-141.29;98.02
22025;BME280;11176;51.448;6.650;2023-01-29T07:40:04;45825.91;;;-141.29;98.44
22025;BME280;11176;51.448;6.650;2023-01-29T07:42:37;45801.94;;;-141.29;97.90
22025;BME280;11176;51.448;6.650;2023-01-29T07:45:05;45823.91;;;-141.29;97.65
22025;BME280;11176;51.448;6.650;2023-01-29T07:47:32;45813.94;;;-141.29;97.57
22025;BME280;11176;51.448;6.650;2023-01-29T07:49:58;45825.91;;;-141.29;97.81
22025;BME280;11176;51.448;6.650;2023-01-29T07:52:24;45817.91;;;-141.29;98.01
22025;BME280;11176;51.448;6.650;2023-01-29T07:54:51;45827.91;;;-141.29;97.95
22025;BME280;11176;51.448;6.650;2023-01-29T07:57:17;45789.94;;;-141.29;97.85
22025;BME280;11176;51.448;6.650;2023-01-29T07:59:44;45809.94;;;-141.29;98.13
22025;BME280;11176;51.448;6.650;2023-01-29T08:02:11;45811.94;;;-141.29;97.90
22025;BME280;11176;51.448;6.650;2023-01-29T08:04:37;45821.91;;;-141.29;98.09
22025;BME280;11176;51.448;6.650;2023-01-29T08:07:04;45809.94;;;-141.29;97.51
22025;BME280;11176;51.448;6.650;2023-01-29T08:09:31;45803.94;;;-141.29;98.05
22025;BME280;11176;51.448;6.650;2023-01-29T08:11:57;45831.91;;;-141.29;97.61
22025;BME280;11176;51.448;6.650;2023-01-29T08:14:24;45805.94;;;-141.29;97.41
22025;BME280;11176;51.448;6.650;2023-01-29T08:16:50;45825.91;;;-141.29;97.28
22025;BME280;11176;51.448;6.650;2023-01-29T08:19:16;45813.94;;;-141.29;96.98
22025;BME280;11176;51.448;6.650;2023-01-29T08:21:43;45813.94;;;-141.29;97.09
22025;BME280;11176;51.448;6.650;2023-01-29T08:24:09;45797.94;;;-141.29;96.69
22025;BME280;11176;51.448;6.650;2023-01-29T08:26:36;45815.94;;;-141.29;96.89
22025;BME280;11176;51.448;6.650;2023-01-29T08:29:02;45813.94;;;-141.29;96.24
22025;BME280;11176;51.448;6.650;2023-01-29T08:31:29;45833.91;;;-141.29;96.34
22025;BME280;11176;51.448;6.650;2023-01-29T08:33:55;45817.91;;;-141.29;96.71
22025;BME280;11176;51.448;6.650;2023-01-29T08:36:22;45837.91;;;-141.29;96.82
22025;BME280;11176;51.448;6.650;2023-01-29T08:38:48;45821.91;;;-141.29;97.07
22025;BME280;11176;51.448;6.650;2023-01-29T08:41:15;45805.94;;;-141.29;97.11
22025;BME280;11176;51.448;6.650;2023-01-29T08:43:41;45807.94;;;-141.29;97.10
22025;BME280;11176;51.448;6.650;2023-01-29T08:46:08;45821.91;;;-141.29;96.72
22025;BME280;11176;51.448;6.650;2023-01-29T08:48:34;45807.94;;;-141.29;96.69
22025;BME280;11176;51.448;6.650;2023-01-29T08:51:01;45811.94;;;-141.29;96.60
22025;BME280;11176;51.448;6.650;2023-01-29T08:53:30;45793.94;;;-141.29;95.53
22025;BME280;11176;51.448;6.650;2023-01-29T08:55:57;45777.94;;;-141.29;95.18
22025;BME280;11176;51.448;6.650;2023-01-29T08:58:23;45801.94;;;-141.29;95.19
22025;BME280;11176;51.448;6.650;2023-01-29T09:00:49;45809.94;;;-141.29;95.21
22025;BME280;11176;51.448;6.650;2023-01-29T09:03:16;45813.94;;;-141.29;95.45
22025;BME280;11176;51.448;6.650;2023-01-29T09:05:42;45811.94;;;-141.29;95.31
22025;BME280;11176;51.448;6.650;2023-01-29T09:08:09;45803.94;;;-141.29;95.74
22025;BME280;11176;51.448;6.650;2023-01-29T09:10:35;45809.94;;;-141.29;96.07
22025;BME280;11176;51.448;6.650;2023-01-29T09:13:02;45807.94;;;-141.29;95.64
22025;BME280;11176;51.448;6.650;2023-01-29T09:15:29;45797.94;;;-141.29;95.62
22025;BME280;11176;51.448;6.650;2023-01-29T09:17:56;45797.94;;;-141.29;96.14
22025;BME280;11176;51.448;6.650;2023-01-29T09:20:22;45805.94;;;-141.29;95.48
22025;BME280;11176;51.448;6.650;2023-01-29T09:22:49;45823.91;;;-141.29;95.71
22025;BME280;11176;51.448;6.650;2023-01-29T09:25:18;45817.91;;;-141.29;95.64
22025;BME280;11176;51.448;6.650;2023-01-29T09:27:45;45785.94;;;-141.29;95.43
22025;BME280;11176;51.448;6.650;2023-01-29T09:30:12;45809.94;;;-141.29;95.92
22025;BME280;11176;51.448;6.650;2023-01-29T09:32:38;45789.94;;;-141.29;95.71
22025;BME280;11176;51.448;6.650;2023-01-29T09:35:21;45825.91;;;-141.29;95.53
22025;BME280;11176;51.448;6.650;2023-01-29T09:37:49;45795.94;;;-141.29;96.29
22025;BME280;11176;51.448;6.650;2023-01-29T09:43:18;45781.94;;;-141.29;96.07
22025;BME280;11176;51.448;6.650;2023-01-29T09:46:00;45799.94;;;-141.29;95.77
22025;BME280;11176;51.448;6.650;2023-01-29T09:48:32;45825.91;;;-141.29;95.82
22025;BME280;11176;51.448;6.650;2023-01-29T09:51:03;45795.94;;;-141.29;96.04
22025;BME280;11176;51.448;6.650;2023-01-29T09:53:44;45805.94;;;-141.29;95.42
22025;BME280;11176;51.448;6.650;2023-01-29T09:56:17;45793.94;;;-141.29;95.04
22025;BME280;11176;51.448;6.650;2023-01-29T09:58:44;45785.94;;;-141.29;95.53
22025;BME280;11176;51.448;6.650;2023-01-29T10:01:16;45797.94;;;-141.29;95.74
22025;BME280;11176;51.448;6.650;2023-01-29T10:06:56;45801.94;;;-141.29;95.22
22025;BME280;11176;51.448;6.650;2023-01-29T10:15:00;45793.94;;;-141.29;95.26
22025;BME280;11176;51.448;6.650;2023-01-29T10:20:31;45789.94;;;-141.29;95.13
22025;BME280;11176;51.448;6.650;2023-01-29T10:25:46;45799.94;;;-141.29;95.35
22025;BME280;11176;51.448;6.650;2023-01-29T10:28:24;45801.94;;;-141.29;95.48
22025;BME280;11176;51.448;6.650;2023-01-29T10:31:03;45769.97;;;-141.29;94.89
22025;BME280;11176;51.448;6.650;2023-01-29T10:33:42;45789.94;;;-141.29;95.32
22025;BME280;11176;51.448;6.650;2023-01-29T10:36:34;45785.94;;;-141.29;95.00
22025;BME280;11176;51.448;6.650;2023-01-29T10:39:01;45777.94;;;-141.29;94.93
22025;BME280;11176;51.448;6.650;2023-01-29T10:55:26;45797.94;;;-141.29;94.31
22025;BME280;11176;51.448;6.650;2023-01-29T10:58:40;45757.97;;;-141.29;94.33
22025;BME280;11176;51.448;6.650;2023-01-29T11:01:12;45803.94;;;-141.29;93.88
22025;BME280;11176;51.448;6.650;2023-01-29T11:03:38;45781.94;;;-141.29;94.06
22025;BME280;11176;51.448;6.650;2023-01-29T11:06:14;45785.94;;;-141.29;93.92
22025;BME280;11176;51.448;6.650;2023-01-29T11:08:52;45793.94;;;-141.29;93.30
22025;BME280;11176;51.448;6.650;2023-01-29T11:11:30;45789.94;;;-141.29;93.37
22025;BME280;11176;51.448;6.650;2023-01-29T11:14:01;45781.94;;;-141.29;93.27
22025;BME280;11176;51.448;6.650;2023-01-29T11:16:42;45773.94;;;-141.29;92.76
22025;BME280;11176;51.448;6.650;2023-01-29T11:19:11;45761.97;;;-141.29;93.17
22025;BME280;11176;51.448;6.650;2023-01-29T11:21:58;45783.94;;;-141.29;92.72
22025;BME280;11176;51.448;6.650;2023-01-29T11:24:26;45765.97;;;-141.29;92.89
22025;BME280;11176;51.448;6.650;2023-01-29T11:26:55;45769.97;;;-141.29;92.86
22025;BME280;11176;51.448;6.650;2023-01-29T11:31:52;45801.94;;;-141.29;93.51
22025;BME280;11176;51.448;6.650;2023-01-29T11:34:23;45769.97;;;-141.29;93.21
22025;BME280;11176;51.448;6.650;2023-01-29T11:37:01;45779.94;;;-141.29;92.61
22025;BME280;11176;51.448;6.650;2023-01-29T11:39:29;45777.94;;;-141.29;93.30
22025;BME280;11176;51.448;6.650;2023-01-29T11:42:03;45749.97;;;-141.29;93.55
22025;BME280;11176;51.448;6.650;2023-01-29T11:44:33;45785.94;;;-141.29;92.94
22025;BME280;11176;51.448;6.650;2023-01-29T11:52:14;45783.94;;;-141.29;93.27
22025;BME280;11176;51.448;6.650;2023-01-29T11:54:55;45771.94;;;-141.29;93.14
22025;BME280;11176;51.448;6.650;2023-01-29T11:57:37;45761.97;;;-141.29;93.21
22025;BME280;11176;51.448;6.650;2023-01-29T12:00:23;45767.97;;;-141.29;92.62
22025;BME280;11176;51.448;6.650;2023-01-29T12:03:03;45757.97;;;-141.29;92.83
22025;BME280;11176;51.448;6.650;2023-01-29T12:05:32;45761.97;;;-141.29;92.47
22025;BME280;11176;51.448;6.650;2023-01-29T12:08:00;45753.97;;;-141.29;92.50
22025;BME280;11176;51.448;6.650;2023-01-29T12:15:40;45759.97;;;-141.29;92.63
22025;BME280;11176;51.448;6.650;2023-01-29T12:18:31;45747.97;;;-141.29;92.45
22025;BME280;11176;51.448;6.650;2023-01-29T12:21:03;45773.94;;;-141.29;92.32
22025;BME280;11176;51.448;6.650;2023-01-29T12:23:33;45763.97;;;-141.29;92.22
22025;BME280;11176;51.448;6.650;2023-01-29T12:26:08;45763.97;;;-141.29;91.90
22025;BME280;11176;51.448;6.650;2023-01-29T12:31:34;45771.94;;;-141.29;91.56
22025;BME280;11176;51.448;6.650;2023-01-29T12:34:15;45749.97;;;-141.29;91.63
22025;BME280;11176;51.448;6.650;2023-01-29T12:37:02;45749.97;;;-141.29;91.34
22025;BME280;11176;51.448;6.650;2023-01-29T12:39:31;45765.97;;;-141.29;91.52
22025;BME280;11176;51.448;6.650;2023-01-29T12:45:02;45741.97;;;-141.29;91.00
22025;BME280;11176;51.448;6.650;2023-01-29T12:47:31;45771.94;;;-141.29;90.89
22025;BME280;11176;51.448;6.650;2023-01-29T12:50:05;45751.97;;;-141.29;90.72
22025;BME280;11176;51.448;6.650;2023-01-29T12:52:42;45733.97;;;-141.29;91.05
22025;BME280;11176;51.448;6.650;2023-01-29T12:55:21;45745.97;;;-141.29;90.88
22025;BME280;11176;51.448;6.650;2023-01-29T12:58:01;45724.00;;;-141.29;90.23
22025;BME280;11176;51.448;6.650;2023-01-29T13:00:35;45741.97;;;-141.29;90.26
22025;BME280;11176;51.448;6.650;2023-01-29T13:05:48;45757.97;;;-141.29;89.63
22025;BME280;11176;51.448;6.650;2023-01-29T13:10:49;45739.97;;;-141.29;89.48
22025;BME280;11176;51.448;6.650;2023-01-29T13:13:33;45741.97;;;-141.29;89.93
22025;BME280;11176;51.448;6.650;2023-01-29T13:16:04;45725.97;;;-141.29;89.72
22025;BME280;11176;51.448;6.650;2023-01-29T13:18:40;45729.97;;;-141.29;89.47
22025;BME280;11176;51.448;6.650;2023-01-29T13:21:18;45735.97;;;-141.29;89.34
22025;BME280;11176;51.448;6.650;2023-01-29T13:23:49;45761.97;;;-141.29;88.96
22025;BME280;11176;51.448;6.650;2023-01-29T13:26:17;45735.97;;;-141.29;89.37
22025;BME280;11176;51.448;6.650;2023-01-29T13:28:45;45749.97;;;-141.29;89.66
22025;BME280;11176;51.448;6.650;2023-01-29T13:31:29;45733.97;;;-141.29;89.89
22025;BME280;11176;51.448;6.650;2023-01-29T13:34:10;45733.97;;;-141.29;89.57
22025;BME280;11176;51.448;6.650;2023-01-29T13:36:46;45769.97;;;-141.29;89.42
22025;BME280;11176;51.448;6.650;2023-01-29T13:39:37;45745.97;;;-141.29;89.76
22025;BME280;11176;51.448;6.650;2023-01-29T13:45:20;45741.97;;;-141.29;89.43
22025;BME280;11176;51.448;6.650;2023-01-29T13:47:49;45743.97;;;-141.29;88.70
22025;BME280;11176;51.448;6.650;2023-01-29T13:50:36;45749.97;;;-141.29;88.34
22025;BME280;11176;51.448;6.650;2023-01-29T13:53:05;45733.97;;;-141.29;88.00
22025;BME280;11176;51.448;6.650;2023-01-29T13:55:34;45745.97;;;-141.29;87.99
22025;BME280;11176;51.448;6.650;2023-01-29T14:00:51;45725.97;;;-141.29;87.79
22025;BME280;11176;51.448;6.650;2023-01-29T14:13:48;45755.97;;;-141.29;87.60
22025;BME280;11176;51.448;6.650;2023-01-29T14:18:47;45741.97;;;-141.29;86.61
22025;BME280;11176;51.448;6.650;2023-01-29T14:23:50;45737.97;;;-141.29;86.35
22025;BME280;11176;51.448;6.650;2023-01-29T14:26:22;45751.97;;;-141.29;86.13
22025;BME280;11176;51.448;6.650;2023-01-29T14:28:59;45737.97;;;-141.29;86.33
22025;BME280;11176;51.448;6.650;2023-01-29T14:31:59;45737.97;;;-141.29;86.77
22025;BME280;11176;51.448;6.650;2023-01-29T14:35:01;45749.97;;;-141.29;86.81
22025;BME280;11176;51.448;6.650;2023-01-29T14:37:37;45722.00;;;-141.29;86.64
22025;BME280;11176;51.448;6.650;2023-01-29T14:42:38;45733.97;;;-141.29;85.82
22025;BME280;11176;51.448;6.650;2023-01-29T14:45:22;45753.97;;;-141.29;85.98
22025;BME280;11176;51.448;6.650;2023-01-29T14:53:10;45757.97;;;-141.29;85.68
22025;BME280;11176;51.448;6.650;2023-01-29T14:55:44;45739.97;;;-141.29;85.32
22025;BME280;11176;51.448;6.650;2023-01-29T14:58:17;45722.00;;;-141.29;84.42
22025;BME280;11176;51.448;6.650;2023-01-29T15:00:49;45729.97;;;-141.29;84.96
22025;BME280;11176;51.448;6.650;2023-01-29T15:03:38;45722.00;;;-141.29;84.75